Provo Municipal Airport Provo US
ICAO: KPVU
IATA: PVU
Category: Medium
Scheduled Services: No

Elevation: 4497 ft
TransAlt. 18000 ft.

Airport Communications:
SALT LAKE CITY APP:124.3
ATIS:135.175
AWOS 3:135.175
SALT LAKE CITY DEP:118.85
GND:119.4
TWR:125.3
CTAF/UNICOM:125.3

KPVU Zoom In..

If you have problems with the map follow the link
https://www.worldairports.se/pages/airport.php?
ICAO=KPVU

Runways:

(A) RW 13 length 8599 ft width 150 ft
ILS 110.30 / hdg 134

(B) RW 18 length 6614 ft width 150 ft
---- / hdg 180

(C) RW 31 length 8599 ft width 150 ft
---- / hdg 314

(D) RW 36 length 6614 ft width 150 ft
---- / hdg 360

Location; KPVU
Day. 21 / Time. 03.56 Zulu
* Altimeter: 30.12
* Temperature: 02° c. 35.6°f.
* Wind from: 250° Speed 04 kn.
Dewpoint: -03° c.
Visibility: 10 Statute Miles.
Clouds: Few 12000 ft.

KPVU 210356Z 25004KT 10SM FEW120 02/M03 A3012 RMK AO2 SLP217 T00171033 FZRANO


Wind From 250°
Speed 04 kn.

 
 
jpsmedia worldairports.se 2020   terms of use